sensor_id;sensor_type;location;lat;lon;timestamp;pressure;altitude;pressure_sealevel;temperature;humidity
15884;BME280;8040;50.254;10.960;2023-01-13T00:01:08;97619.63;;;11.11;70.28
15884;BME280;8040;50.254;10.960;2023-01-13T00:03:34;97605.59;;;11.09;70.78
15884;BME280;8040;50.254;10.960;2023-01-13T00:05:59;97597.13;;;10.94;71.06
15884;BME280;8040;50.254;10.960;2023-01-13T00:08:25;97601.28;;;11.00;71.58
15884;BME280;8040;50.254;10.960;2023-01-13T00:10:50;97591.50;;;10.99;71.66
15884;BME280;8040;50.254;10.960;2023-01-13T00:13:16;97581.94;;;11.01;72.12
15884;BME280;8040;50.254;10.960;2023-01-13T00:15:41;97592.63;;;10.98;71.46
15884;BME280;8040;50.254;10.960;2023-01-13T00:18:07;97587.06;;;10.94;71.87
15884;BME280;8040;50.254;10.960;2023-01-13T00:20:32;97585.94;;;11.04;72.16
15884;BME280;8040;50.254;10.960;2023-01-13T00:22:57;97585.94;;;11.04;71.92
15884;BME280;8040;50.254;10.960;2023-01-13T00:25:24;97572.19;;;10.92;72.16
15884;BME280;8040;50.254;10.960;2023-01-13T00:27:49;97585.94;;;11.04;72.96
15884;BME280;8040;50.254;10.960;2023-01-13T00:30:15;97576.69;;;11.05;72.58
15884;BME280;8040;50.254;10.960;2023-01-13T00:32:40;97566.63;;;11.05;72.03
15884;BME280;8040;50.254;10.960;2023-01-13T00:35:06;97560.25;;;11.10;72.16
15884;BME280;8040;50.254;10.960;2023-01-13T00:37:34;97578.47;;;11.09;72.07
15884;BME280;8040;50.254;10.960;2023-01-13T00:40:00;97564.09;;;11.09;72.79
15884;BME280;8040;50.254;10.960;2023-01-13T00:42:25;97566.34;;;11.15;73.54
15884;BME280;8040;50.254;10.960;2023-01-13T00:45:09;97569.19;;;11.10;73.26
15884;BME280;8040;50.254;10.960;2023-01-13T00:47:35;97557.06;;;11.08;73.76
15884;BME280;8040;50.254;10.960;2023-01-13T00:50:00;97557.69;;;11.05;74.33
15884;BME280;8040;50.254;10.960;2023-01-13T00:52:25;97555.16;;;11.00;74.49
15884;BME280;8040;50.254;10.960;2023-01-13T00:54:51;97559.63;;;11.04;74.71
15884;BME280;8040;50.254;10.960;2023-01-13T00:57:16;97561.50;;;10.95;75.29
15884;BME280;8040;50.254;10.960;2023-01-13T00:59:42;97554.50;;;10.94;75.48
15884;BME280;8040;50.254;10.960;2023-01-13T01:02:08;97555.13;;;10.83;76.27
15884;BME280;8040;50.254;10.960;2023-01-13T01:04:33;97544.56;;;10.73;76.44
15884;BME280;8040;50.254;10.960;2023-01-13T01:06:58;97537.09;;;10.78;76.09
15884;BME280;8040;50.254;10.960;2023-01-13T01:09:24;97546.84;;;10.79;75.94
15884;BME280;8040;50.254;10.960;2023-01-13T01:11:57;97546.34;;;10.86;75.60
15884;BME280;8040;50.254;10.960;2023-01-13T01:14:22;97552.09;;;10.76;75.19
15884;BME280;8040;50.254;10.960;2023-01-13T01:16:47;97549.84;;;10.78;75.68
15884;BME280;8040;50.254;10.960;2023-01-13T01:19:13;97557.53;;;10.84;75.23
15884;BME280;8040;50.254;10.960;2023-01-13T01:21:38;97551.16;;;10.89;74.99
15884;BME280;8040;50.254;10.960;2023-01-13T01:24:04;97545.72;;;10.89;74.77
15884;BME280;8040;50.254;10.960;2023-01-13T01:26:30;97559.59;;;10.87;74.23
15884;BME280;8040;50.254;10.960;2023-01-13T01:28:56;97556.22;;;10.90;74.71
15884;BME280;8040;50.254;10.960;2023-01-13T01:31:23;97554.47;;;10.86;74.94
15884;BME280;8040;50.254;10.960;2023-01-13T01:33:49;97542.03;;;10.85;74.86
15884;BME280;8040;50.254;10.960;2023-01-13T01:36:16;97550.03;;;10.90;74.68
15884;BME280;8040;50.254;10.960;2023-01-13T01:38:43;97542.22;;;10.97;75.14
15884;BME280;8040;50.254;10.960;2023-01-13T01:41:16;97544.09;;;10.96;74.80
15884;BME280;8040;50.254;10.960;2023-01-13T01:43:54;97548.28;;;10.94;75.46
15884;BME280;8040;50.254;10.960;2023-01-13T01:46:23;97517.31;;;10.78;75.15
15884;BME280;8040;50.254;10.960;2023-01-13T01:48:49;97533.91;;;10.85;75.63
15884;BME280;8040;50.254;10.960;2023-01-13T01:51:14;97528.00;;;10.91;75.37
15884;BME280;8040;50.254;10.960;2023-01-13T01:53:40;97526.75;;;10.97;74.77
15884;BME280;8040;50.254;10.960;2023-01-13T01:56:08;97527.19;;;10.91;74.31
15884;BME280;8040;50.254;10.960;2023-01-13T01:58:39;97517.94;;;10.92;74.62
15884;BME280;8040;50.254;10.960;2023-01-13T02:01:11;97529.75;;;10.96;74.17
15884;BME280;8040;50.254;10.960;2023-01-13T02:03:38;97514.59;;;10.86;74.21
15884;BME280;8040;50.254;10.960;2023-01-13T02:06:05;97506.28;;;10.74;74.46
15884;BME280;8040;50.254;10.960;2023-01-13T02:08:30;97524.34;;;10.96;74.11
15884;BME280;8040;50.254;10.960;2023-01-13T02:10:56;97518.91;;;10.96;73.72
15884;BME280;8040;50.254;10.960;2023-01-13T02:13:22;97505.66;;;11.03;73.51
15884;BME280;8040;50.254;10.960;2023-01-13T02:16:07;97503.25;;;10.93;72.80
15884;BME280;8040;50.254;10.960;2023-01-13T02:18:48;97527.22;;;11.08;72.07
15884;BME280;8040;50.254;10.960;2023-01-13T02:21:40;97511.69;;;11.08;72.14
15884;BME280;8040;50.254;10.960;2023-01-13T02:27:51;97509.66;;;11.14;71.54
15884;BME280;8040;50.254;10.960;2023-01-13T02:30:33;97497.19;;;11.13;71.45
15884;BME280;8040;50.254;10.960;2023-01-13T02:36:23;97507.25;;;11.21;71.34
15884;BME280;8040;50.254;10.960;2023-01-13T02:38:55;97505.50;;;11.16;71.65
15884;BME280;8040;50.254;10.960;2023-01-13T02:41:45;97495.09;;;11.18;71.86
15884;BME280;8040;50.254;10.960;2023-01-13T02:44:37;97488.91;;;11.18;71.72
15884;BME280;8040;50.254;10.960;2023-01-13T02:47:31;97501.66;;;11.26;71.83
15884;BME280;8040;50.254;10.960;2023-01-13T02:50:03;97482.19;;;11.15;72.40
15884;BME280;8040;50.254;10.960;2023-01-13T02:52:35;97486.66;;;11.20;72.23
15884;BME280;8040;50.254;10.960;2023-01-13T02:55:14;97475.94;;;11.23;72.33
15884;BME280;8040;50.254;10.960;2023-01-13T02:57:42;97474.81;;;11.24;72.86
15884;BME280;8040;50.254;10.960;2023-01-13T03:00:10;97468.28;;;11.17;72.93
15884;BME280;8040;50.254;10.960;2023-01-13T03:02:36;97469.22;;;11.21;72.75
15884;BME280;8040;50.254;10.960;2023-01-13T03:05:04;97469.06;;;11.26;72.67
15884;BME280;8040;50.254;10.960;2023-01-13T03:10:26;97468.41;;;11.29;72.87
15884;BME280;8040;50.254;10.960;2023-01-13T03:13:17;97452.28;;;11.24;73.09
15884;BME280;8040;50.254;10.960;2023-01-13T03:15:53;97463.50;;;11.22;72.48
15884;BME280;8040;50.254;10.960;2023-01-13T03:21:01;97465.84;;;11.32;72.52
15884;BME280;8040;50.254;10.960;2023-01-13T03:27:31;97473.22;;;11.15;73.37
15884;BME280;8040;50.254;10.960;2023-01-13T03:29:40;97477.22;;;11.17;74.12
15884;BME280;8040;50.254;10.960;2023-01-13T03:32:36;97481.53;;;11.27;74.95
15884;BME280;8040;50.254;10.960;2023-01-13T03:37:36;97474.69;;;11.12;74.87
15884;BME280;8040;50.254;10.960;2023-01-13T03:40:07;97468.47;;;11.12;75.15
15884;BME280;8040;50.254;10.960;2023-01-13T03:42:36;97473.22;;;11.15;75.20
15884;BME280;8040;50.254;10.960;2023-01-13T03:45:10;97466.22;;;11.14;75.19
15884;BME280;8040;50.254;10.960;2023-01-13T03:47:45;97470.53;;;11.15;75.53
15884;BME280;8040;50.254;10.960;2023-01-13T03:50:14;97476.56;;;11.20;75.94
15884;BME280;8040;50.254;10.960;2023-01-13T03:52:44;97466.38;;;11.09;75.93
15884;BME280;8040;50.254;10.960;2023-01-13T03:55:20;97468.63;;;11.15;76.25
15884;BME280;8040;50.254;10.960;2023-01-13T03:58:11;97470.06;;;11.13;76.59
15884;BME280;8040;50.254;10.960;2023-01-13T04:00:43;97478.97;;;11.05;76.71
15884;BME280;8040;50.254;10.960;2023-01-13T04:03:14;97470.38;;;11.03;77.14
15884;BME280;8040;50.254;10.960;2023-01-13T04:05:46;97475.63;;;11.16;77.14
15884;BME280;8040;50.254;10.960;2023-01-13T04:08:19;97472.94;;;11.16;76.96
15884;BME280;8040;50.254;10.960;2023-01-13T04:10:56;97470.69;;;11.10;77.27
15884;BME280;8040;50.254;10.960;2023-01-13T04:13:26;97468.13;;;11.05;78.00
15884;BME280;8040;50.254;10.960;2023-01-13T04:15:53;97465.41;;;11.05;78.30
15884;BME280;8040;50.254;10.960;2023-01-13T04:18:26;97467.97;;;11.10;78.10
15884;BME280;8040;50.254;10.960;2023-01-13T04:20:54;97448.34;;;10.96;78.82
15884;BME280;8040;50.254;10.960;2023-01-13T04:23:21;97458.09;;;10.97;78.95
15884;BME280;8040;50.254;10.960;2023-01-13T04:25:47;97457.28;;;11.05;78.97
15884;BME280;8040;50.254;10.960;2023-01-13T04:28:14;97464.16;;;10.94;79.08
15884;BME280;8040;50.254;10.960;2023-01-13T04:30:40;97460.00;;;10.96;79.46
15884;BME280;8040;50.254;10.960;2023-01-13T04:33:06;97465.59;;;11.00;80.24
15884;BME280;8040;50.254;10.960;2023-01-13T04:35:33;97465.41;;;10.96;80.17
15884;BME280;8040;50.254;10.960;2023-01-13T04:38:04;97465.44;;;10.88;80.06
15884;BME280;8040;50.254;10.960;2023-01-13T04:40:29;97457.31;;;10.88;80.25
15884;BME280;8040;50.254;10.960;2023-01-13T04:42:54;97473.91;;;10.95;80.58
15884;BME280;8040;50.254;10.960;2023-01-13T04:45:20;97468.47;;;10.95;80.71
15884;BME280;8040;50.254;10.960;2023-01-13T04:47:45;97463.19;;;10.98;80.92
15884;BME280;8040;50.254;10.960;2023-01-13T04:50:12;97465.91;;;10.90;81.15
15884;BME280;8040;50.254;10.960;2023-01-13T04:52:37;97463.22;;;10.90;80.62
15884;BME280;8040;50.254;10.960;2023-01-13T04:55:03;97471.03;;;10.91;80.90
15884;BME280;8040;50.254;10.960;2023-01-13T04:57:29;97454.09;;;10.86;80.34
15884;BME280;8040;50.254;10.960;2023-01-13T04:59:54;97452.50;;;10.93;80.22
15884;BME280;8040;50.254;10.960;2023-01-13T05:02:19;97440.69;;;10.98;80.09
15884;BME280;8040;50.254;10.960;2023-01-13T05:04:45;97452.34;;;10.90;80.00
15884;BME280;8040;50.254;10.960;2023-01-13T05:07:12;97449.34;;;10.91;79.80
15884;BME280;8040;50.254;10.960;2023-01-13T05:09:37;97434.00;;;10.87;79.33
15884;BME280;8040;50.254;10.960;2023-01-13T05:12:03;97433.84;;;10.92;79.31
15884;BME280;8040;50.254;10.960;2023-01-13T05:14:47;97447.09;;;10.93;79.11
15884;BME280;8040;50.254;10.960;2023-01-13T05:17:31;97443.09;;;10.99;79.04
15884;BME280;8040;50.254;10.960;2023-01-13T05:19:56;97426.97;;;11.03;79.03
15884;BME280;8040;50.254;10.960;2023-01-13T05:22:22;97437.16;;;11.14;78.84
15884;BME280;8040;50.254;10.960;2023-01-13T05:25:08;97437.97;;;11.06;78.19
15884;BME280;8040;50.254;10.960;2023-01-13T05:27:51;97446.56;;;11.17;78.28
15884;BME280;8040;50.254;10.960;2023-01-13T05:30:19;97440.03;;;11.18;77.96
15884;BME280;8040;50.254;10.960;2023-01-13T05:32:44;97440.03;;;11.18;77.54
15884;BME280;8040;50.254;10.960;2023-01-13T05:35:10;97436.50;;;11.17;77.17
15884;BME280;8040;50.254;10.960;2023-01-13T05:37:37;97429.97;;;11.18;77.50
15884;BME280;8040;50.254;10.960;2023-01-13T05:40:04;97441.13;;;11.17;77.15
15884;BME280;8040;50.254;10.960;2023-01-13T05:42:59;97433.28;;;11.24;76.91
15884;BME280;8040;50.254;10.960;2023-01-13T05:45:43;97439.22;;;11.17;77.09
15884;BME280;8040;50.254;10.960;2023-01-13T05:48:08;97430.91;;;11.22;76.91
15884;BME280;8040;50.254;10.960;2023-01-13T05:50:34;97439.81;;;11.31;77.29
15884;BME280;8040;50.254;10.960;2023-01-13T05:52:59;97444.91;;;11.41;78.14
15884;BME280;8040;50.254;10.960;2023-01-13T05:55:24;97443.97;;;11.29;78.21
15884;BME280;8040;50.254;10.960;2023-01-13T05:57:50;97430.69;;;11.36;77.98
15884;BME280;8040;50.254;10.960;2023-01-13T06:00:16;97423.38;;;11.28;78.29
15884;BME280;8040;50.254;10.960;2023-01-13T06:02:41;97424.53;;;11.18;78.62
15884;BME280;8040;50.254;10.960;2023-01-13T06:05:07;97432.81;;;11.22;78.67
15884;BME280;8040;50.254;10.960;2023-01-13T06:07:32;97437.78;;;11.28;78.83
15884;BME280;8040;50.254;10.960;2023-01-13T06:09:58;97422.78;;;11.14;78.83
15884;BME280;8040;50.254;10.960;2023-01-13T06:12:23;97445.25;;;11.31;79.15
15884;BME280;8040;50.254;10.960;2023-01-13T06:14:48;97436.22;;;11.10;79.27
15884;BME280;8040;50.254;10.960;2023-01-13T06:17:14;97436.38;;;11.14;79.56
15884;BME280;8040;50.254;10.960;2023-01-13T06:19:40;97432.84;;;11.13;80.20
15884;BME280;8040;50.254;10.960;2023-01-13T06:22:18;97438.56;;;11.20;80.44
15884;BME280;8040;50.254;10.960;2023-01-13T06:24:45;97448.34;;;11.21;80.30
15884;BME280;8040;50.254;10.960;2023-01-13T06:27:11;97442.84;;;11.30;80.98
15884;BME280;8040;50.254;10.960;2023-01-13T06:29:37;97446.69;;;11.29;80.90
15884;BME280;8040;50.254;10.960;2023-01-13T06:32:04;97436.66;;;11.21;81.04
15884;BME280;8040;50.254;10.960;2023-01-13T06:34:32;97442.09;;;11.21;80.70
15884;BME280;8040;50.254;10.960;2023-01-13T06:37:02;97436.84;;;11.16;80.73
15884;BME280;8040;50.254;10.960;2023-01-13T06:39:29;97431.25;;;11.12;80.83
15884;BME280;8040;50.254;10.960;2023-01-13T06:41:56;97437.78;;;11.20;80.44
15884;BME280;8040;50.254;10.960;2023-01-13T06:44:40;97455.50;;;11.26;80.65
15884;BME280;8040;50.254;10.960;2023-01-13T06:47:06;97443.84;;;11.25;80.99
15884;BME280;8040;50.254;10.960;2023-01-13T06:49:32;97439.69;;;11.28;80.69
15884;BME280;8040;50.254;10.960;2023-01-13T06:51:57;97442.69;;;11.35;80.75
15884;BME280;8040;50.254;10.960;2023-01-13T06:54:22;97446.84;;;11.32;80.48
15884;BME280;8040;50.254;10.960;2023-01-13T06:56:48;97398.53;;;11.09;80.81
15884;BME280;8040;50.254;10.960;2023-01-13T06:59:16;97433.00;;;11.17;80.72
15884;BME280;8040;50.254;10.960;2023-01-13T07:01:42;97437.13;;;11.23;80.60
15884;BME280;8040;50.254;10.960;2023-01-13T07:04:07;97423.75;;;11.18;81.27
15884;BME280;8040;50.254;10.960;2023-01-13T07:06:32;97432.06;;;11.13;81.11
15884;BME280;8040;50.254;10.960;2023-01-13T07:08:58;97415.28;;;11.11;81.41
15884;BME280;8040;50.254;10.960;2023-01-13T07:11:23;97435.06;;;11.28;81.03
15884;BME280;8040;50.254;10.960;2023-01-13T07:13:49;97416.22;;;11.23;80.73
15884;BME280;8040;50.254;10.960;2023-01-13T07:16:33;97433.13;;;11.29;80.44
15884;BME280;8040;50.254;10.960;2023-01-13T07:18:58;97424.06;;;11.25;80.65
15884;BME280;8040;50.254;10.960;2023-01-13T07:21:23;97443.69;;;11.22;80.64
15884;BME280;8040;50.254;10.960;2023-01-13T07:23:49;97430.09;;;11.22;80.57
15884;BME280;8040;50.254;10.960;2023-01-13T07:26:15;97431.69;;;11.31;80.99
15884;BME280;8040;50.254;10.960;2023-01-13T07:28:40;97431.38;;;11.24;81.27
15884;BME280;8040;50.254;10.960;2023-01-13T07:31:13;97437.25;;;11.35;80.91
15884;BME280;8040;50.254;10.960;2023-01-13T07:33:39;97420.97;;;11.35;80.92
15884;BME280;8040;50.254;10.960;2023-01-13T07:36:05;97442.19;;;11.50;80.73
15884;BME280;8040;50.254;10.960;2023-01-13T07:38:32;97424.47;;;11.44;80.98
15884;BME280;8040;50.254;10.960;2023-01-13T07:40:58;97427.66;;;11.46;80.54
15884;BME280;8040;50.254;10.960;2023-01-13T07:43:43;97431.31;;;11.50;80.11
15884;BME280;8040;50.254;10.960;2023-01-13T07:46:09;97448.53;;;11.54;79.81
15884;BME280;8040;50.254;10.960;2023-01-13T07:48:34;97445.69;;;11.50;79.72
15884;BME280;8040;50.254;10.960;2023-01-13T07:51:01;97444.22;;;11.53;79.39
15884;BME280;8040;50.254;10.960;2023-01-13T07:53:26;97439.63;;;11.45;79.00
15884;BME280;8040;50.254;10.960;2023-01-13T07:55:56;97459.75;;;11.61;79.44
15884;BME280;8040;50.254;10.960;2023-01-13T07:58:22;97481.00;;;11.59;79.57
15884;BME280;8040;50.254;10.960;2023-01-13T08:00:47;97487.84;;;11.65;79.14
15884;BME280;8040;50.254;10.960;2023-01-13T08:03:13;97510.06;;;11.67;79.23
15884;BME280;8040;50.254;10.960;2023-01-13T08:05:38;97532.94;;;11.49;79.32
15884;BME280;8040;50.254;10.960;2023-01-13T08:08:04;97525.91;;;11.31;79.34
15884;BME280;8040;50.254;10.960;2023-01-13T08:10:29;97541.09;;;11.15;76.44
15884;BME280;8040;50.254;10.960;2023-01-13T08:12:54;97547.00;;;11.00;77.14
15884;BME280;8040;50.254;10.960;2023-01-13T08:15:38;97555.28;;;10.78;76.80
15884;BME280;8040;50.254;10.960;2023-01-13T08:18:04;97560.22;;;10.67;77.26
15884;BME280;8040;50.254;10.960;2023-01-13T08:20:29;97551.41;;;10.45;77.68
15884;BME280;8040;50.254;10.960;2023-01-13T08:22:56;97548.19;;;10.43;79.40
15884;BME280;8040;50.254;10.960;2023-01-13T08:25:22;97566.69;;;10.41;78.91
15884;BME280;8040;50.254;10.960;2023-01-13T08:27:49;97550.66;;;10.22;79.01
15884;BME280;8040;50.254;10.960;2023-01-13T08:30:14;97545.53;;;10.12;78.71
15884;BME280;8040;50.254;10.960;2023-01-13T08:32:43;97552.69;;;10.08;78.04
15884;BME280;8040;50.254;10.960;2023-01-13T08:35:08;97559.41;;;10.11;77.67
15884;BME280;8040;50.254;10.960;2023-01-13T08:37:34;97558.59;;;10.10;78.90
15884;BME280;8040;50.254;10.960;2023-01-13T08:39:59;97569.13;;;10.12;78.32
15884;BME280;8040;50.254;10.960;2023-01-13T08:42:25;97560.00;;;10.08;78.77
15884;BME280;8040;50.254;10.960;2023-01-13T08:44:52;97551.34;;;9.97;77.83
15884;BME280;8040;50.254;10.960;2023-01-13T08:47:18;97538.38;;;9.86;77.30
15884;BME280;8040;50.254;10.960;2023-01-13T08:49:43;97560.13;;;10.03;78.06
15884;BME280;8040;50.254;10.960;2023-01-13T08:52:09;97553.44;;;10.00;78.24
15884;BME280;8040;50.254;10.960;2023-01-13T08:54:37;97553.50;;;10.09;78.67
15884;BME280;8040;50.254;10.960;2023-01-13T08:57:02;97549.03;;;10.13;79.31
15884;BME280;8040;50.254;10.960;2023-01-13T08:59:28;97558.28;;;10.12;78.73
15884;BME280;8040;50.254;10.960;2023-01-13T09:01:53;97564.56;;;9.99;78.35
15884;BME280;8040;50.254;10.960;2023-01-13T09:04:21;97571.19;;;10.06;78.26
15884;BME280;8040;50.254;10.960;2023-01-13T09:06:48;97577.38;;;10.07;77.75
15884;BME280;8040;50.254;10.960;2023-01-13T09:09:14;97579.63;;;10.05;77.89
15884;BME280;8040;50.254;10.960;2023-01-13T09:11:42;97577.00;;;10.00;78.35
15884;BME280;8040;50.254;10.960;2023-01-13T09:14:30;97589.91;;;9.94;78.21
15884;BME280;8040;50.254;10.960;2023-01-13T09:16:57;97605.38;;;10.02;78.78
15884;BME280;8040;50.254;10.960;2023-01-13T09:19:22;97605.50;;;9.97;77.90
15884;BME280;8040;50.254;10.960;2023-01-13T09:21:48;97615.75;;;10.00;78.11
15884;BME280;8040;50.254;10.960;2023-01-13T09:24:14;97620.34;;;10.00;77.92
15884;BME280;8040;50.254;10.960;2023-01-13T09:26:39;97628.25;;;10.10;78.24
15884;BME280;8040;50.254;10.960;2023-01-13T09:29:04;97618.13;;;10.02;76.76
15884;BME280;8040;50.254;10.960;2023-01-13T09:31:30;97617.63;;;10.00;77.55
15884;BME280;8040;50.254;10.960;2023-01-13T09:34:00;97621.94;;;10.01;77.82
15884;BME280;8040;50.254;10.960;2023-01-13T09:36:44;97633.81;;;10.05;77.67
15884;BME280;8040;50.254;10.960;2023-01-13T09:39:09;97643.13;;;9.99;77.67
15884;BME280;8040;50.254;10.960;2023-01-13T09:41:40;97612.97;;;9.92;77.41
15884;BME280;8040;50.254;10.960;2023-01-13T09:44:31;97631.56;;;10.07;78.26
15884;BME280;8040;50.254;10.960;2023-01-13T09:47:03;97608.53;;;9.96;78.47
15884;BME280;8040;50.254;10.960;2023-01-13T09:49:37;97609.50;;;10.00;78.13
15884;BME280;8040;50.254;10.960;2023-01-13T09:52:09;97583.22;;;10.00;78.69
15884;BME280;8040;50.254;10.960;2023-01-13T09:54:53;97574.41;;;9.95;78.52
15884;BME280;8040;50.254;10.960;2023-01-13T09:57:20;97571.38;;;9.88;78.93
15884;BME280;8040;50.254;10.960;2023-01-13T09:59:46;97587.66;;;9.96;79.36
15884;BME280;8040;50.254;10.960;2023-01-13T10:07:30;97580.66;;;10.26;78.51
15884;BME280;8040;50.254;10.960;2023-01-13T10:10:01;97569.50;;;10.27;78.05
15884;BME280;8040;50.254;10.960;2023-01-13T10:12:27;97582.31;;;10.44;78.09
15884;BME280;8040;50.254;10.960;2023-01-13T10:15:16;97599.72;;;10.51;77.06
15884;BME280;8040;50.254;10.960;2023-01-13T10:17:48;97583.94;;;10.45;76.75
15884;BME280;8040;50.254;10.960;2023-01-13T10:20:25;97592.69;;;10.42;76.14
15884;BME280;8040;50.254;10.960;2023-01-13T10:23:26;97599.81;;;10.38;76.26
15884;BME280;8040;50.254;10.960;2023-01-13T10:28:54;97590.31;;;10.49;77.34
15884;BME280;8040;50.254;10.960;2023-01-13T10:31:21;97595.75;;;10.57;77.40
15884;BME280;8040;50.254;10.960;2023-01-13T10:33:47;97577.69;;;10.44;76.17
15884;BME280;8040;50.254;10.960;2023-01-13T10:36:15;97597.66;;;10.57;76.13
15884;BME280;8040;50.254;10.960;2023-01-13T10:38:44;97610.31;;;10.70;75.26
15884;BME280;8040;50.254;10.960;2023-01-13T10:41:26;97600.38;;;10.65;75.37
15884;BME280;8040;50.254;10.960;2023-01-13T10:44:12;97602.19;;;10.70;75.55
15884;BME280;8040;50.254;10.960;2023-01-13T10:46:55;97604.72;;;10.66;74.85
15884;BME280;8040;50.254;10.960;2023-01-13T10:49:31;97599.09;;;10.63;75.06
15884;BME280;8040;50.254;10.960;2023-01-13T10:51:57;97590.13;;;10.45;73.51
15884;BME280;8040;50.254;10.960;2023-01-13T10:54:24;97594.44;;;10.46;74.01
15884;BME280;8040;50.254;10.960;2023-01-13T10:57:13;97588.22;;;10.46;74.01
15884;BME280;8040;50.254;10.960;2023-01-13T10:59:40;97594.59;;;10.50;74.27
15884;BME280;8040;50.254;10.960;2023-01-13T11:04:35;97585.91;;;10.70;73.47
15884;BME280;8040;50.254;10.960;2023-01-13T11:07:03;97589.91;;;10.72;73.25
15884;BME280;8040;50.254;10.960;2023-01-13T11:09:31;97602.34;;;10.90;72.54
15884;BME280;8040;50.254;10.960;2023-01-13T11:11:57;97589.94;;;10.98;72.62
15884;BME280;8040;50.254;10.960;2023-01-13T11:14:43;97575.53;;;10.80;72.26
15884;BME280;8040;50.254;10.960;2023-01-13T11:17:18;97609.06;;;10.84;71.94
15884;BME280;8040;50.254;10.960;2023-01-13T11:20:43;97609.56;;;10.95;72.54
15884;BME280;8040;50.254;10.960;2023-01-13T11:22:46;97611.50;;;11.11;73.00
15884;BME280;8040;50.254;10.960;2023-01-13T11:25:18;97593.63;;;11.19;72.87
15884;BME280;8040;50.254;10.960;2023-01-13T11:27:56;97595.06;;;11.16;71.66
15884;BME280;8040;50.254;10.960;2023-01-13T11:30:51;97599.22;;;11.22;71.36
15884;BME280;8040;50.254;10.960;2023-01-13T11:36:22;97591.22;;;11.34;71.35
15884;BME280;8040;50.254;10.960;2023-01-13T11:38:57;97604.47;;;11.53;70.88
15884;BME280;8040;50.254;10.960;2023-01-13T11:41:43;97616.63;;;11.64;70.00
15884;BME280;8040;50.254;10.960;2023-01-13T11:44:22;97602.25;;;11.55;69.91
15884;BME280;8040;50.254;10.960;2023-01-13T11:46:49;97592.47;;;11.54;68.99
15884;BME280;8040;50.254;10.960;2023-01-13T11:49:25;97603.69;;;11.52;69.46
15884;BME280;8040;50.254;10.960;2023-01-13T11:52:05;97610.25;;;11.51;69.09
15884;BME280;8040;50.254;10.960;2023-01-13T11:58:17;97611.81;;;11.78;70.23
15884;BME280;8040;50.254;10.960;2023-01-13T12:05:54;97598.44;;;11.73;65.86
15884;BME280;8040;50.254;10.960;2023-01-13T12:14:15;97604.50;;;11.61;64.47
15884;BME280;8040;50.254;10.960;2023-01-13T12:16:47;97606.25;;;11.66;63.78
15884;BME280;8040;50.254;10.960;2023-01-13T12:24:45;97594.09;;;11.72;62.66
15884;BME280;8040;50.254;10.960;2023-01-13T12:27:15;97604.94;;;11.80;62.50
15884;BME280;8040;50.254;10.960;2023-01-13T12:29:43;97594.25;;;11.75;61.09
15884;BME280;8040;50.254;10.960;2023-01-13T12:32:17;97573.16;;;11.81;61.02
15884;BME280;8040;50.254;10.960;2023-01-13T12:35:01;97591.34;;;11.80;60.26
15884;BME280;8040;50.254;10.960;2023-01-13T12:38:03;97588.63;;;11.80;60.15
15884;BME280;8040;50.254;10.960;2023-01-13T12:43:20;97586.41;;;11.57;59.33
15884;BME280;8040;50.254;10.960;2023-01-13T12:53:53;97583.25;;;11.29;59.47
15884;BME280;8040;50.254;10.960;2023-01-13T12:56:41;97591.53;;;11.24;59.81
15884;BME280;8040;50.254;10.960;2023-01-13T13:01:48;97599.19;;;11.05;59.11
15884;BME280;8040;50.254;10.960;2023-01-13T13:04:18;97586.59;;;11.18;59.94
15884;BME280;8040;50.254;10.960;2023-01-13T13:06:51;97588.97;;;11.19;59.59
15884;BME280;8040;50.254;10.960;2023-01-13T13:09:30;97601.13;;;11.30;59.38
15884;BME280;8040;50.254;10.960;2023-01-13T13:11:57;97593.63;;;11.19;59.03
15884;BME280;8040;50.254;10.960;2023-01-13T13:17:04;97594.25;;;11.16;59.50
15884;BME280;8040;50.254;10.960;2023-01-13T13:25:13;97602.72;;;11.14;60.40
15884;BME280;8040;50.254;10.960;2023-01-13T13:33:08;97612.31;;;11.54;61.49
15884;BME280;8040;50.254;10.960;2023-01-13T13:42:18;97657.75;;;10.98;57.94
15884;BME280;8040;50.254;10.960;2023-01-13T13:45:13;97683.13;;;10.93;61.26
15884;BME280;8040;50.254;10.960;2023-01-13T13:47:59;97673.91;;;10.55;59.80
15884;BME280;8040;50.254;10.960;2023-01-13T13:50:25;97685.78;;;10.37;60.58
15884;BME280;8040;50.254;10.960;2023-01-13T13:52:54;97706.09;;;10.18;61.07
15884;BME280;8040;50.254;10.960;2023-01-13T13:55:26;97706.75;;;10.01;62.03
15884;BME280;8040;50.254;10.960;2023-01-13T13:57:54;97685.69;;;9.76;61.70
15884;BME280;8040;50.254;10.960;2023-01-13T14:00:39;97685.00;;;9.71;63.97
15884;BME280;8040;50.254;10.960;2023-01-13T14:03:07;97702.19;;;9.66;62.96
15884;BME280;8040;50.254;10.960;2023-01-13T14:05:56;97714.41;;;9.64;63.48
15884;BME280;8040;50.254;10.960;2023-01-13T14:08:23;97710.34;;;9.53;63.71
15884;BME280;8040;50.254;10.960;2023-01-13T14:10:49;97705.16;;;9.43;64.73
15884;BME280;8040;50.254;10.960;2023-01-13T14:13:24;97716.00;;;9.43;67.04
15884;BME280;8040;50.254;10.960;2023-01-13T14:16:01;97706.31;;;9.28;67.45
15884;BME280;8040;50.254;10.960;2023-01-13T14:18:29;97688.47;;;9.27;68.25
15884;BME280;8040;50.254;10.960;2023-01-13T14:21:04;97689.97;;;9.55;67.89
15884;BME280;8040;50.254;10.960;2023-01-13T14:23:38;97687.19;;;9.47;66.98
15884;BME280;8040;50.254;10.960;2023-01-13T14:26:08;97684.25;;;9.57;67.31
15884;BME280;8040;50.254;10.960;2023-01-13T14:28:38;97694.50;;;9.60;67.89
15884;BME280;8040;50.254;10.960;2023-01-13T14:31:06;97695.19;;;9.52;66.95
15884;BME280;8040;50.254;10.960;2023-01-13T14:33:44;97698.53;;;9.49;67.42
15884;BME280;8040;50.254;10.960;2023-01-13T14:36:11;97689.22;;;9.41;67.33
15884;BME280;8040;50.254;10.960;2023-01-13T14:38:39;97684.47;;;9.47;68.42
15884;BME280;8040;50.254;10.960;2023-01-13T14:41:15;97695.31;;;9.47;68.35
15884;BME280;8040;50.254;10.960;2023-01-13T14:43:44;97685.59;;;9.46;68.31
15884;BME280;8040;50.254;10.960;2023-01-13T14:46:11;97701.84;;;9.46;68.01